Terminal Aerodrome Forecast
Issued by NWS

Current Version | Previous Version | Text Only | Print | Product List | Glossary On
Versions: 1 2 3 4 5 6 7 8 9 10 11 12 13 14 15 16 17 18 19 20 21 22
000
FTUS44 KBMX 261731
TAFTCL
TAF
KTCL 261731Z 2618/2718 04007G14KT P6SM SCT250
     FM270000 03003KT P6SM SCT120
     FM271000 04002KT 3SM BR FEW150
     FM271200 05002KT P6SM FEW150=

USA.gov is the U.S. government's official web portal to all federal, state and local government web resources and services.